createdAt,value
2018-12-27T00:00:05.830Z,101662.94
2018-12-27T00:02:35.599Z,101664.48
2018-12-27T00:05:03.574Z,101661.84
2018-12-27T00:07:31.430Z,101663.14
2018-12-27T00:09:59.340Z,101666.05
2018-12-27T00:12:32.220Z,101666.15
2018-12-27T00:15:00.474Z,101667.16
2018-12-27T00:17:27.997Z,101663.70
2018-12-27T00:19:55.619Z,101661.23
2018-12-27T00:22:23.690Z,101658.73
2018-12-27T00:24:57.114Z,101650.02
2018-12-27T00:27:30.804Z,101650.42
2018-12-27T00:30:01.691Z,101652.70
2018-12-27T00:32:29.621Z,101639.11
2018-12-27T00:34:57.614Z,101633.10
2018-12-27T00:37:25.539Z,101630.92
2018-12-27T00:39:53.255Z,101625.72
2018-12-27T00:42:20.706Z,101631.52
2018-12-27T00:44:48.760Z,101628.26
2018-12-27T00:47:21.541Z,101627.28
2018-12-27T00:49:52.697Z,101629.03
2018-12-27T00:52:29.346Z,101626.69
2018-12-27T00:55:00.254Z,101629.06
2018-12-27T00:57:40.264Z,101624.96
2018-12-27T01:00:19.613Z,101623.37
2018-12-27T01:03:40.195Z,101619.38
2018-12-27T01:06:07.776Z,101621.72
2018-12-27T01:09:21.170Z,101616.91
2018-12-27T01:12:42.640Z,101617.52
2018-12-27T01:15:10.270Z,101620.80
2018-12-27T01:17:37.796Z,101616.64
2018-12-27T01:20:05.385Z,101614.00
2018-12-27T01:22:49.894Z,101620.80
2018-12-27T01:25:48.673Z,101616.13
2018-12-27T01:28:16.386Z,101613.72
2018-12-27T01:30:44.023Z,101617.78
2018-12-27T01:34:03.214Z,101618.83
2018-12-27T01:36:30.791Z,101615.25
2018-12-27T01:40:29.653Z,101608.91
2018-12-27T01:43:18.236Z,101603.33
2018-12-27T01:49:16.288Z,101602.58
2018-12-27T01:51:43.770Z,101607.58
2018-12-27T01:54:11.240Z,101603.42
2018-12-27T01:56:38.740Z,101615.44
2018-12-27T01:59:06.371Z,101601.15
2018-12-27T02:01:33.925Z,101607.67
2018-12-27T02:04:01.371Z,101607.28
2018-12-27T02:06:28.891Z,101602.38
2018-12-27T02:08:56.375Z,101601.51
2018-12-27T02:11:23.935Z,101597.02
2018-12-27T02:13:51.405Z,101605.02
2018-12-27T02:16:18.984Z,101595.08
2018-12-27T02:18:46.455Z,101600.38
2018-12-27T02:21:14.075Z,101601.38
2018-12-27T02:23:41.576Z,101591.95
2018-12-27T02:26:09.085Z,101588.19
2018-12-27T02:28:36.569Z,101586.98
2018-12-27T02:31:04.098Z,101587.41
2018-12-27T02:33:35.422Z,101580.98
2018-12-27T02:36:00.968Z,101579.78
2018-12-27T02:38:28.436Z,101573.87
2018-12-27T02:40:55.990Z,101568.80
2018-12-27T02:43:23.437Z,101572.14
2018-12-27T02:45:51.005Z,101562.83
2018-12-27T02:48:18.442Z,101563.27
2018-12-27T02:50:45.990Z,101552.16
2018-12-27T02:53:13.480Z,101557.59
2018-12-27T02:55:41.070Z,101555.00
2018-12-27T02:58:08.581Z,101548.50
2018-12-27T03:00:36.206Z,101541.20
2018-12-27T03:03:03.720Z,101537.75
2018-12-27T03:05:31.160Z,101533.55
2018-12-27T03:07:58.670Z,101530.78
2018-12-27T03:10:26.166Z,101528.44
2018-12-27T03:12:53.665Z,101529.73
2018-12-27T03:15:21.145Z,101522.57
2018-12-27T03:17:48.657Z,101526.12
2018-12-27T03:20:16.167Z,101511.58
2018-12-27T03:22:43.705Z,101524.06
2018-12-27T03:25:11.134Z,101516.66
2018-12-27T03:27:38.698Z,101514.06
2018-12-27T03:30:06.147Z,101508.86
2018-12-27T03:32:33.678Z,101513.22
2018-12-27T03:35:01.204Z,101514.95
2018-12-27T03:37:28.793Z,101507.30
2018-12-27T03:39:56.251Z,101499.12
2018-12-27T03:42:23.771Z,101499.92
2018-12-27T03:44:51.298Z,101494.58
2018-12-27T03:47:18.860Z,101495.20
2018-12-27T03:49:46.301Z,101494.06
2018-12-27T03:52:13.767Z,101490.66
2018-12-27T03:54:41.239Z,101486.47
2018-12-27T03:57:08.752Z,101486.38
2018-12-27T03:59:36.243Z,101480.23
2018-12-27T04:02:03.811Z,101479.84
2018-12-27T04:04:31.287Z,101478.74
2018-12-27T04:06:58.900Z,101472.92
2018-12-27T04:09:26.490Z,101477.40
2018-12-27T04:11:54.018Z,101471.94
2018-12-27T04:14:21.503Z,101478.25
2018-12-27T04:16:48.978Z,101483.59
2018-12-27T04:19:16.499Z,101484.10
2018-12-27T04:21:44.052Z,101482.77
2018-12-27T04:24:11.953Z,101485.33
2018-12-27T04:26:39.506Z,101479.45
2018-12-27T04:29:07.112Z,101477.84
2018-12-27T04:31:34.776Z,101482.38
2018-12-27T04:34:09.475Z,101465.88
2018-12-27T04:36:32.206Z,101456.86
2018-12-27T04:38:59.765Z,101459.27
2018-12-27T04:41:27.304Z,101447.01
2018-12-27T04:43:54.952Z,101451.91
2018-12-27T04:46:22.422Z,101476.02
2018-12-27T04:48:50.436Z,101474.45
2018-12-27T04:51:17.877Z,101479.79
2018-12-27T04:53:45.426Z,101479.03
2018-12-27T04:56:12.916Z,101480.54
2018-12-27T04:58:40.446Z,101474.71
2018-12-27T05:01:07.973Z,101475.83
2018-12-27T05:03:35.566Z,101471.27
2018-12-27T05:06:03.011Z,101472.67
2018-12-27T05:08:30.535Z,101475.71
2018-12-27T05:10:58.006Z,101476.67
2018-12-27T05:13:25.571Z,101483.58
2018-12-27T05:15:53.026Z,101476.75
2018-12-27T05:18:20.496Z,101474.52
2018-12-27T05:20:47.957Z,101477.86
2018-12-27T05:23:15.529Z,101483.28
2018-12-27T05:25:43.056Z,101485.42
2018-12-27T05:28:10.615Z,101480.08
2018-12-27T05:30:38.056Z,101487.06
2018-12-27T05:33:05.555Z,101480.61
2018-12-27T05:35:33.061Z,101474.21
2018-12-27T05:38:00.591Z,101477.46
2018-12-27T05:40:28.251Z,101483.17
2018-12-27T05:42:55.750Z,101485.52
2018-12-27T05:45:23.246Z,101484.66
2018-12-27T05:47:50.711Z,101485.58
2018-12-27T05:50:18.306Z,101482.94
2018-12-27T05:52:45.791Z,101485.89
2018-12-27T05:55:13.294Z,101491.96
2018-12-27T05:57:40.766Z,101499.56
2018-12-27T06:00:08.281Z,101493.18
2018-12-27T06:02:35.740Z,101500.63
2018-12-27T06:05:03.296Z,101500.35
2018-12-27T06:07:30.906Z,101504.63
2018-12-27T06:09:58.476Z,101503.20
2018-12-27T06:12:25.931Z,101515.44
2018-12-27T06:14:54.037Z,101514.59
2018-12-27T06:17:21.763Z,101519.41
2018-12-27T06:19:49.417Z,101517.06
2018-12-27T06:22:16.946Z,101521.81
2018-12-27T06:24:44.506Z,101522.61
2018-12-27T06:27:12.036Z,101522.81
2018-12-27T06:29:39.587Z,101515.89
2018-12-27T06:32:07.056Z,101515.39
2018-12-27T06:34:41.143Z,101512.08
2018-12-27T06:37:04.075Z,101521.96
2018-12-27T06:39:31.712Z,101524.25
2018-12-27T06:41:59.464Z,101524.72
2018-12-27T06:44:27.356Z,101521.27
2018-12-27T06:46:54.797Z,101523.11
2018-12-27T06:49:22.471Z,101519.34
2018-12-27T06:51:50.037Z,101523.86
2018-12-27T06:54:17.578Z,101521.52
2018-12-27T06:56:45.060Z,101522.44
2018-12-27T06:59:12.506Z,101527.47
2018-12-27T07:01:40.133Z,101529.20
2018-12-27T07:04:07.642Z,101523.05
2018-12-27T07:06:35.256Z,101525.08
2018-12-27T07:09:05.883Z,101519.76
2018-12-27T07:11:33.796Z,101523.73
2018-12-27T07:14:02.241Z,101524.77
2018-12-27T07:16:29.843Z,101528.28
2018-12-27T07:18:58.324Z,101530.88
2018-12-27T07:21:26.111Z,101525.16
2018-12-27T07:23:53.622Z,101532.50
2018-12-27T07:26:21.182Z,101522.94
2018-12-27T07:28:48.662Z,101527.02
2018-12-27T07:31:16.181Z,101520.61
2018-12-27T07:33:43.637Z,101526.47
2018-12-27T07:36:11.192Z,101525.72
2018-12-27T07:38:38.641Z,101528.31
2018-12-27T07:41:06.201Z,101527.39
2018-12-27T07:43:33.631Z,101529.36
2018-12-27T07:46:01.214Z,101526.26
2018-12-27T07:48:28.801Z,101535.55
2018-12-27T07:50:56.341Z,101536.55
2018-12-27T07:53:23.886Z,101542.89
2018-12-27T07:55:51.491Z,101534.98
2018-12-27T07:58:19.018Z,101534.86
2018-12-27T08:00:46.641Z,101538.05
2018-12-27T08:03:14.151Z,101536.77
2018-12-27T08:05:44.856Z,101528.34
2018-12-27T08:08:12.466Z,101526.00
2018-12-27T08:10:40.131Z,101525.76
2018-12-27T08:13:07.865Z,101514.09
2018-12-27T08:15:35.476Z,101510.98
2018-12-27T08:18:09.346Z,101516.76
2018-12-27T08:20:37.321Z,101514.55
2018-12-27T08:23:05.011Z,101505.20
2018-12-27T08:25:32.491Z,101508.34
2018-12-27T08:28:00.121Z,101506.62
2018-12-27T08:30:33.541Z,101499.17
2018-12-27T08:33:01.575Z,101492.33
2018-12-27T08:35:29.241Z,101489.12
2018-12-27T08:37:57.330Z,101477.64
2018-12-27T08:41:09.964Z,101478.52
2018-12-27T08:43:37.422Z,101469.23
2018-12-27T08:46:04.896Z,101465.95
2018-12-27T08:48:34.591Z,101461.21
2018-12-27T08:51:02.065Z,101466.64
2018-12-27T08:53:29.574Z,101465.62
2018-12-27T08:55:57.027Z,101463.75
2018-12-27T08:58:24.604Z,101456.79
2018-12-27T09:00:52.086Z,101457.91
2018-12-27T09:03:19.587Z,101460.23
2018-12-27T09:05:47.056Z,101453.27
2018-12-27T09:08:14.546Z,101440.34
2018-12-27T09:10:41.986Z,101460.08
2018-12-27T09:13:09.531Z,101464.94
2018-12-27T09:15:37.026Z,101460.08
2018-12-27T09:18:04.615Z,101457.47
2018-12-27T09:20:32.691Z,101446.83
2018-12-27T09:23:00.206Z,101450.72
2018-12-27T09:25:27.660Z,101444.11
2018-12-27T09:27:55.196Z,101446.01
2018-12-27T09:30:22.656Z,101435.42
2018-12-27T09:32:50.138Z,101444.49
2018-12-27T09:35:17.590Z,101446.25
2018-12-27T09:37:45.135Z,101453.39
2018-12-27T09:40:12.636Z,101453.31
2018-12-27T09:42:40.156Z,101456.84
2018-12-27T09:45:08.173Z,101456.59
2018-12-27T09:47:35.841Z,101452.59
2018-12-27T09:50:03.629Z,101464.36
2018-12-27T09:52:31.200Z,101455.76
2018-12-27T09:54:59.805Z,101454.64
2018-12-27T09:57:27.265Z,101447.12
2018-12-27T09:59:54.732Z,101445.30
2018-12-27T10:02:23.076Z,101443.21
2018-12-27T10:04:52.851Z,101448.20
2018-12-27T10:07:23.466Z,101447.08
2018-12-27T10:09:51.119Z,101446.49
2018-12-27T10:12:19.091Z,101436.04
2018-12-27T10:14:46.721Z,101432.08
2018-12-27T10:17:14.671Z,101429.41
2018-12-27T10:19:42.168Z,101434.17
2018-12-27T10:22:09.957Z,101424.85
2018-12-27T10:24:37.524Z,101420.27
2018-12-27T10:27:04.990Z,101411.89
2018-12-27T10:29:33.513Z,101413.20
2018-12-27T10:32:01.304Z,101406.75
2018-12-27T10:34:29.133Z,101410.53
2018-12-27T10:36:57.009Z,101412.17
2018-12-27T10:39:24.775Z,101408.41
2018-12-27T10:41:53.449Z,101401.96
2018-12-27T10:44:22.014Z,101404.58
2018-12-27T10:46:49.554Z,101402.63
2018-12-27T10:49:17.226Z,101391.92
2018-12-27T10:51:45.294Z,101394.02
2018-12-27T10:54:12.934Z,101388.39
2018-12-27T10:56:40.493Z,101378.75
2018-12-27T10:59:08.106Z,101382.34
2018-12-27T11:01:35.874Z,101370.05
2018-12-27T11:04:03.683Z,101365.23
2018-12-27T11:06:31.835Z,101361.38
2018-12-27T11:09:00.999Z,101359.70
2018-12-27T11:11:28.653Z,101355.04
2018-12-27T11:14:09.395Z,101362.88
2018-12-27T11:16:45.054Z,101357.70
2018-12-27T11:19:12.856Z,101348.53
2018-12-27T11:22:28.477Z,101311.99
2018-12-27T11:25:00.025Z,101308.19
2018-12-27T11:27:58.173Z,101289.06
2018-12-27T11:30:37.095Z,101287.98
2018-12-27T11:37:43.947Z,101268.88
2018-12-27T11:41:59.684Z,101271.86
2018-12-27T11:42:54.322Z,101265.41
2018-12-27T11:45:22.018Z,101270.47
2018-12-27T11:47:49.623Z,101275.86
2018-12-27T11:50:17.237Z,101270.32
2018-12-27T11:52:44.959Z,101271.31
2018-12-27T11:55:13.034Z,101267.27
2018-12-27T11:57:40.754Z,101272.17
2018-12-27T12:00:10.114Z,101268.26
2018-12-27T12:02:37.834Z,101276.63
2018-12-27T12:05:05.734Z,101271.71
2018-12-27T12:07:33.393Z,101258.33
2018-12-27T12:10:01.346Z,101257.95
2018-12-27T12:12:29.233Z,101256.95
2018-12-27T12:14:56.994Z,101256.80
2018-12-27T12:17:24.722Z,101251.64
2018-12-27T12:19:52.414Z,101244.25
2018-12-27T12:22:20.183Z,101240.17
2018-12-27T12:24:47.906Z,101247.63
2018-12-27T12:27:15.934Z,101232.41
2018-12-27T12:29:43.806Z,101233.64
2018-12-27T12:32:11.634Z,101223.79
2018-12-27T12:34:39.416Z,101226.94
2018-12-27T12:37:13.968Z,101224.86
2018-12-27T12:39:38.334Z,101223.25
2018-12-27T12:42:06.022Z,101224.80
2018-12-27T12:44:33.636Z,101214.45
2018-12-27T12:47:01.676Z,101221.74
2018-12-27T12:49:29.617Z,101227.29
2018-12-27T12:51:58.014Z,101229.59
2018-12-27T12:54:26.134Z,101229.66
2018-12-27T12:56:53.934Z,101224.45
2018-12-27T12:59:21.715Z,101215.05
2018-12-27T13:01:49.474Z,101223.05
2018-12-27T13:04:19.382Z,101209.63
2018-12-27T13:06:47.415Z,101206.24
2018-12-27T13:09:15.034Z,101204.62
2018-12-27T13:11:42.953Z,101207.63
2018-12-27T13:14:10.636Z,101205.78
2018-12-27T13:16:39.764Z,101205.95
2018-12-27T13:19:07.735Z,101211.77
2018-12-27T13:21:35.608Z,101212.55
2018-12-27T13:24:03.313Z,101224.05
2018-12-27T13:26:31.054Z,101246.19
2018-12-27T13:28:58.814Z,101245.50
2018-12-27T13:31:26.615Z,101253.28
2018-12-27T13:33:54.284Z,101268.23
2018-12-27T13:36:25.308Z,101264.31
2018-12-27T13:38:51.562Z,101270.16
2018-12-27T13:41:19.334Z,101276.38
2018-12-27T13:43:47.186Z,101276.95
2018-12-27T13:46:15.002Z,101276.70
2018-12-27T13:52:12.313Z,101293.92
2018-12-27T13:54:40.326Z,101297.09
2018-12-27T15:35:13.212Z,101302.47
2018-12-27T17:55:10.073Z,101322.58
2018-12-27T18:01:13.613Z,101291.26
2018-12-27T18:05:11.026Z,101300.14
2018-12-27T18:12:32.134Z,101295.65
2018-12-27T18:15:58.014Z,101308.80
2018-12-27T18:18:45.395Z,101302.65
2018-12-27T18:21:22.250Z,101317.45
2018-12-27T19:04:47.036Z,101324.11
2018-12-27T20:35:58.894Z,101290.83
2018-12-27T20:43:28.105Z,101308.81
2018-12-27T20:53:18.993Z,101323.09
2018-12-27T20:56:46.835Z,101328.50
2018-12-27T21:09:04.821Z,101327.20
2018-12-27T21:11:41.673Z,101329.09
2018-12-27T21:14:17.475Z,101334.74
2018-12-27T21:17:45.603Z,101337.30
2018-12-27T21:20:30.741Z,101347.38
2018-12-27T22:11:00.723Z,101336.48
2018-12-27T22:33:47.106Z,101318.78
2018-12-27T22:57:35.905Z,101314.84
2018-12-27T23:00:08.714Z,101302.23
2018-12-27T23:07:02.235Z,101293.14
2018-12-27T23:13:33.323Z,101264.41
2018-12-27T23:16:38.017Z,101246.75
2018-12-27T23:19:51.754Z,101256.06
2018-12-27T23:30:37.456Z,101227.54
